sensor_id;sensor_type;location;lat;lon;timestamp;temperature;humidity
51793;DHT22;37850;53.178;6.376;2023-02-15T00:01:58;1.60;99.90
51793;DHT22;37850;53.178;6.376;2023-02-15T00:04:25;1.60;99.90
51793;DHT22;37850;53.178;6.376;2023-02-15T00:07:11;1.60;99.90
51793;DHT22;37850;53.178;6.376;2023-02-15T00:09:36;1.60;99.90
51793;DHT22;37850;53.178;6.376;2023-02-15T00:12:03;1.50;99.90
51793;DHT22;37850;53.178;6.376;2023-02-15T00:14:29;1.50;99.90
51793;DHT22;37850;53.178;6.376;2023-02-15T00:16:55;1.90;99.90
51793;DHT22;37850;53.178;6.376;2023-02-15T00:19:21;1.90;99.90
51793;DHT22;37850;53.178;6.376;2023-02-15T00:21:48;1.40;99.90
51793;DHT22;37850;53.178;6.376;2023-02-15T00:24:16;1.40;99.90
51793;DHT22;37850;53.178;6.376;2023-02-15T00:26:43;1.40;99.90
51793;DHT22;37850;53.178;6.376;2023-02-15T00:29:10;1.30;99.90
51793;DHT22;37850;53.178;6.376;2023-02-15T00:31:36;1.30;99.90
51793;DHT22;37850;53.178;6.376;2023-02-15T00:36:39;1.30;99.90
51793;DHT22;37850;53.178;6.376;2023-02-15T00:39:05;1.30;99.90
51793;DHT22;37850;53.178;6.376;2023-02-15T00:41:32;1.20;99.90
51793;DHT22;37850;53.178;6.376;2023-02-15T00:43:57;1.40;99.90
51793;DHT22;37850;53.178;6.376;2023-02-15T00:46:23;1.10;99.90
51793;DHT22;37850;53.178;6.376;2023-02-15T00:48:49;1.10;99.90
51793;DHT22;37850;53.178;6.376;2023-02-15T00:51:15;1.10;99.90
51793;DHT22;37850;53.178;6.376;2023-02-15T00:53:43;1.00;99.90
51793;DHT22;37850;53.178;6.376;2023-02-15T00:56:12;1.00;99.90
51793;DHT22;37850;53.178;6.376;2023-02-15T00:58:38;1.00;99.90
51793;DHT22;37850;53.178;6.376;2023-02-15T01:01:07;1.00;99.90
51793;DHT22;37850;53.178;6.376;2023-02-15T01:03:33;1.00;99.90
51793;DHT22;37850;53.178;6.376;2023-02-15T01:05:59;0.90;99.90
51793;DHT22;37850;53.178;6.376;2023-02-15T01:08:25;1.30;99.90
51793;DHT22;37850;53.178;6.376;2023-02-15T01:10:51;0.90;99.90
51793;DHT22;37850;53.178;6.376;2023-02-15T01:13:17;0.90;99.90
51793;DHT22;37850;53.178;6.376;2023-02-15T01:15:43;0.90;99.90
51793;DHT22;37850;53.178;6.376;2023-02-15T01:18:10;0.90;99.90
51793;DHT22;37850;53.178;6.376;2023-02-15T01:20:39;0.90;99.90
51793;DHT22;37850;53.178;6.376;2023-02-15T01:23:07;0.90;99.90
51793;DHT22;37850;53.178;6.376;2023-02-15T01:25:34;0.90;99.90
51793;DHT22;37850;53.178;6.376;2023-02-15T01:28:00;0.90;99.90
51793;DHT22;37850;53.178;6.376;2023-02-15T01:30:26;0.90;99.90
51793;DHT22;37850;53.178;6.376;2023-02-15T01:32:52;0.80;99.90
51793;DHT22;37850;53.178;6.376;2023-02-15T01:35:18;0.90;99.90
51793;DHT22;37850;53.178;6.376;2023-02-15T01:37:44;0.80;99.90
51793;DHT22;37850;53.178;6.376;2023-02-15T01:40:15;0.80;99.90
51793;DHT22;37850;53.178;6.376;2023-02-15T01:42:41;0.80;99.90
51793;DHT22;37850;53.178;6.376;2023-02-15T01:45:28;2.00;99.90
51793;DHT22;37850;53.178;6.376;2023-02-15T01:48:00;0.80;99.90
51793;DHT22;37850;53.178;6.376;2023-02-15T01:50:40;0.90;99.90
51793;DHT22;37850;53.178;6.376;2023-02-15T01:53:13;0.80;99.90
51793;DHT22;37850;53.178;6.376;2023-02-15T01:55:45;0.70;99.90
51793;DHT22;37850;53.178;6.376;2023-02-15T01:58:16;0.70;99.90
51793;DHT22;37850;53.178;6.376;2023-02-15T02:00:43;0.70;99.90
51793;DHT22;37850;53.178;6.376;2023-02-15T02:03:09;0.60;99.90
51793;DHT22;37850;53.178;6.376;2023-02-15T02:05:34;0.90;99.90
51793;DHT22;37850;53.178;6.376;2023-02-15T02:08:01;0.60;99.90
51793;DHT22;37850;53.178;6.376;2023-02-15T02:10:27;0.60;99.90
51793;DHT22;37850;53.178;6.376;2023-02-15T02:13:00;1.00;99.90
51793;DHT22;37850;53.178;6.376;2023-02-15T02:34:29;0.50;99.90
51793;DHT22;37850;53.178;6.376;2023-02-15T02:37:18;0.50;99.90
51793;DHT22;37850;53.178;6.376;2023-02-15T02:42:46;0.40;99.90
51793;DHT22;37850;53.178;6.376;2023-02-15T02:45:22;0.40;99.90
51793;DHT22;37850;53.178;6.376;2023-02-15T02:48:01;0.90;99.90
51793;DHT22;37850;53.178;6.376;2023-02-15T02:50:30;0.30;99.90
51793;DHT22;37850;53.178;6.376;2023-02-15T02:52:57;0.30;99.90
51793;DHT22;37850;53.178;6.376;2023-02-15T02:57:54;0.30;99.90
51793;DHT22;37850;53.178;6.376;2023-02-15T03:00:23;0.30;99.90
51793;DHT22;37850;53.178;6.376;2023-02-15T03:02:56;0.70;99.90
51793;DHT22;37850;53.178;6.376;2023-02-15T03:05:27;0.70;99.90
51793;DHT22;37850;53.178;6.376;2023-02-15T03:07:55;0.20;99.90
51793;DHT22;37850;53.178;6.376;2023-02-15T03:10:23;0.20;99.90
51793;DHT22;37850;53.178;6.376;2023-02-15T03:12:50;0.20;99.90
51793;DHT22;37850;53.178;6.376;2023-02-15T03:15:21;0.20;99.90
51793;DHT22;37850;53.178;6.376;2023-02-15T03:17:53;0.30;99.90
51793;DHT22;37850;53.178;6.376;2023-02-15T03:20:30;0.20;99.90
51793;DHT22;37850;53.178;6.376;2023-02-15T03:23:12;0.10;99.90
51793;DHT22;37850;53.178;6.376;2023-02-15T03:25:41;0.10;99.90
51793;DHT22;37850;53.178;6.376;2023-02-15T03:28:11;0.10;99.90
51793;DHT22;37850;53.178;6.376;2023-02-15T03:30:40;0.10;99.90
51793;DHT22;37850;53.178;6.376;2023-02-15T03:33:09;0.10;99.90
51793;DHT22;37850;53.178;6.376;2023-02-15T03:36:01;0.60;99.90
51793;DHT22;37850;53.178;6.376;2023-02-15T03:38:37;0.00;99.90
51793;DHT22;37850;53.178;6.376;2023-02-15T03:41:06;0.30;99.90
51793;DHT22;37850;53.178;6.376;2023-02-15T03:43:58;0.00;99.90
51793;DHT22;37850;53.178;6.376;2023-02-15T03:46:42;0.00;99.90
51793;DHT22;37850;53.178;6.376;2023-02-15T03:49:47;0.00;99.90
51793;DHT22;37850;53.178;6.376;2023-02-15T03:52:15;-0.10;99.90
51793;DHT22;37850;53.178;6.376;2023-02-15T03:54:43;-0.10;99.90
51793;DHT22;37850;53.178;6.376;2023-02-15T04:00:24;-0.10;99.90
51793;DHT22;37850;53.178;6.376;2023-02-15T04:03:41;-0.10;99.90
51793;DHT22;37850;53.178;6.376;2023-02-15T04:06:08;-0.20;99.90
51793;DHT22;37850;53.178;6.376;2023-02-15T04:08:34;-0.20;99.90
51793;DHT22;37850;53.178;6.376;2023-02-15T04:11:19;-0.20;99.90
51793;DHT22;37850;53.178;6.376;2023-02-15T04:13:45;-0.20;99.90
51793;DHT22;37850;53.178;6.376;2023-02-15T04:16:10;0.30;99.90
51793;DHT22;37850;53.178;6.376;2023-02-15T04:18:43;-0.20;99.90
51793;DHT22;37850;53.178;6.376;2023-02-15T04:21:29;-0.10;99.90
51793;DHT22;37850;53.178;6.376;2023-02-15T04:24:14;-0.30;99.90
51793;DHT22;37850;53.178;6.376;2023-02-15T04:26:59;-0.30;99.90
51793;DHT22;37850;53.178;6.376;2023-02-15T04:29:27;-0.30;99.90
51793;DHT22;37850;53.178;6.376;2023-02-15T04:31:54;-0.30;99.90
51793;DHT22;37850;53.178;6.376;2023-02-15T04:34:21;-0.30;99.90
51793;DHT22;37850;53.178;6.376;2023-02-15T04:36:47;-0.30;99.90
51793;DHT22;37850;53.178;6.376;2023-02-15T04:39:17;0.00;99.90
51793;DHT22;37850;53.178;6.376;2023-02-15T04:41:44;-0.40;99.90
51793;DHT22;37850;53.178;6.376;2023-02-15T04:44:10;-0.20;99.90
51793;DHT22;37850;53.178;6.376;2023-02-15T04:46:36;-0.40;99.90
51793;DHT22;37850;53.178;6.376;2023-02-15T04:49:02;0.70;99.90
51793;DHT22;37850;53.178;6.376;2023-02-15T04:51:28;-0.40;99.90
51793;DHT22;37850;53.178;6.376;2023-02-15T04:53:54;-0.40;99.90
51793;DHT22;37850;53.178;6.376;2023-02-15T04:56:20;-0.50;99.90
51793;DHT22;37850;53.178;6.376;2023-02-15T04:58:46;-0.50;99.90
51793;DHT22;37850;53.178;6.376;2023-02-15T05:01:13;-0.50;99.90
51793;DHT22;37850;53.178;6.376;2023-02-15T05:03:39;-0.40;99.90
51793;DHT22;37850;53.178;6.376;2023-02-15T05:06:05;-0.50;99.90
51793;DHT22;37850;53.178;6.376;2023-02-15T05:08:30;-0.50;99.90
51793;DHT22;37850;53.178;6.376;2023-02-15T05:10:57;-0.30;99.90
51793;DHT22;37850;53.178;6.376;2023-02-15T05:13:23;-0.50;99.90
51793;DHT22;37850;53.178;6.376;2023-02-15T05:15:50;-0.50;99.90
51793;DHT22;37850;53.178;6.376;2023-02-15T05:18:18;-0.50;99.90
51793;DHT22;37850;53.178;6.376;2023-02-15T05:20:44;-0.30;99.90
51793;DHT22;37850;53.178;6.376;2023-02-15T05:23:10;-0.50;99.90
51793;DHT22;37850;53.178;6.376;2023-02-15T05:25:36;-0.40;99.90
51793;DHT22;37850;53.178;6.376;2023-02-15T05:28:21;-0.40;99.90
51793;DHT22;37850;53.178;6.376;2023-02-15T05:31:08;-0.30;99.90
51793;DHT22;37850;53.178;6.376;2023-02-15T05:33:35;-0.30;99.90
51793;DHT22;37850;53.178;6.376;2023-02-15T05:36:01;-0.20;99.90
51793;DHT22;37850;53.178;6.376;2023-02-15T05:38:28;-0.20;99.90
51793;DHT22;37850;53.178;6.376;2023-02-15T05:40:54;-0.10;99.90
51793;DHT22;37850;53.178;6.376;2023-02-15T05:43:20;1.40;99.90
51793;DHT22;37850;53.178;6.376;2023-02-15T05:45:54;0.10;99.90
51793;DHT22;37850;53.178;6.376;2023-02-15T05:48:24;0.20;99.90
51793;DHT22;37850;53.178;6.376;2023-02-15T05:51:03;0.70;99.90
51793;DHT22;37850;53.178;6.376;2023-02-15T05:53:31;0.20;99.90
51793;DHT22;37850;53.178;6.376;2023-02-15T05:55:57;0.30;99.90
51793;DHT22;37850;53.178;6.376;2023-02-15T05:58:29;0.20;99.90
51793;DHT22;37850;53.178;6.376;2023-02-15T06:00:55;0.40;99.90
51793;DHT22;37850;53.178;6.376;2023-02-15T06:03:22;0.40;99.90
51793;DHT22;37850;53.178;6.376;2023-02-15T06:05:49;0.70;99.90
51793;DHT22;37850;53.178;6.376;2023-02-15T06:08:14;0.40;99.90
51793;DHT22;37850;53.178;6.376;2023-02-15T06:10:41;0.40;99.90
51793;DHT22;37850;53.178;6.376;2023-02-15T06:13:06;0.40;99.90
51793;DHT22;37850;53.178;6.376;2023-02-15T06:15:32;0.50;99.90
51793;DHT22;37850;53.178;6.376;2023-02-15T06:17:58;0.50;99.90
51793;DHT22;37850;53.178;6.376;2023-02-15T06:20:24;0.60;99.90
51793;DHT22;37850;53.178;6.376;2023-02-15T06:22:50;0.60;99.90
51793;DHT22;37850;53.178;6.376;2023-02-15T06:25:16;0.80;99.90
51793;DHT22;37850;53.178;6.376;2023-02-15T06:27:45;0.70;99.90
51793;DHT22;37850;53.178;6.376;2023-02-15T06:30:11;1.20;99.90
51793;DHT22;37850;53.178;6.376;2023-02-15T06:32:38;0.80;99.90
51793;DHT22;37850;53.178;6.376;2023-02-15T06:35:04;1.10;99.90
51793;DHT22;37850;53.178;6.376;2023-02-15T06:37:29;0.80;99.90
51793;DHT22;37850;53.178;6.376;2023-02-15T06:39:55;0.80;99.90
51793;DHT22;37850;53.178;6.376;2023-02-15T06:42:22;0.80;99.90
51793;DHT22;37850;53.178;6.376;2023-02-15T06:44:48;0.80;99.90
51793;DHT22;37850;53.178;6.376;2023-02-15T06:47:14;0.80;99.90
51793;DHT22;37850;53.178;6.376;2023-02-15T06:49:39;0.80;99.90
51793;DHT22;37850;53.178;6.376;2023-02-15T06:52:05;1.40;99.90
51793;DHT22;37850;53.178;6.376;2023-02-15T06:54:31;0.70;99.90
51793;DHT22;37850;53.178;6.376;2023-02-15T06:56:56;0.70;99.90
51793;DHT22;37850;53.178;6.376;2023-02-15T06:59:22;1.40;99.90
51793;DHT22;37850;53.178;6.376;2023-02-15T07:01:48;1.40;99.90
51793;DHT22;37850;53.178;6.376;2023-02-15T07:04:15;0.70;99.90
51793;DHT22;37850;53.178;6.376;2023-02-15T07:06:40;0.70;99.90
51793;DHT22;37850;53.178;6.376;2023-02-15T07:09:06;0.80;99.90
51793;DHT22;37850;53.178;6.376;2023-02-15T07:11:33;0.80;99.90
51793;DHT22;37850;53.178;6.376;2023-02-15T07:14:37;1.30;99.90
51793;DHT22;37850;53.178;6.376;2023-02-15T07:17:03;0.80;99.90
51793;DHT22;37850;53.178;6.376;2023-02-15T07:19:28;0.90;99.90
51793;DHT22;37850;53.178;6.376;2023-02-15T07:21:54;0.90;99.90
51793;DHT22;37850;53.178;6.376;2023-02-15T07:24:20;0.90;99.90
51793;DHT22;37850;53.178;6.376;2023-02-15T07:26:45;0.90;99.90
51793;DHT22;37850;53.178;6.376;2023-02-15T07:29:11;1.00;99.90
51793;DHT22;37850;53.178;6.376;2023-02-15T07:31:37;1.00;99.90
51793;DHT22;37850;53.178;6.376;2023-02-15T07:34:02;1.90;99.90
51793;DHT22;37850;53.178;6.376;2023-02-15T07:36:28;1.10;99.90
51793;DHT22;37850;53.178;6.376;2023-02-15T07:38:54;1.80;99.90
51793;DHT22;37850;53.178;6.376;2023-02-15T07:41:20;1.20;99.90
51793;DHT22;37850;53.178;6.376;2023-02-15T07:43:45;2.00;99.90
51793;DHT22;37850;53.178;6.376;2023-02-15T07:46:13;1.30;99.90
51793;DHT22;37850;53.178;6.376;2023-02-15T07:48:40;1.90;99.90
51793;DHT22;37850;53.178;6.376;2023-02-15T07:51:08;1.40;99.90
51793;DHT22;37850;53.178;6.376;2023-02-15T07:53:34;1.50;99.90
51793;DHT22;37850;53.178;6.376;2023-02-15T07:56:05;1.60;99.90
51793;DHT22;37850;53.178;6.376;2023-02-15T07:58:35;1.60;99.90
51793;DHT22;37850;53.178;6.376;2023-02-15T08:01:17;1.60;99.90
51793;DHT22;37850;53.178;6.376;2023-02-15T08:03:43;1.90;99.90
51793;DHT22;37850;53.178;6.376;2023-02-15T08:06:08;1.70;99.90
51793;DHT22;37850;53.178;6.376;2023-02-15T08:08:37;1.90;99.90
51793;DHT22;37850;53.178;6.376;2023-02-15T08:11:14;2.20;99.90
51793;DHT22;37850;53.178;6.376;2023-02-15T08:14:08;1.90;99.90
51793;DHT22;37850;53.178;6.376;2023-02-15T08:19:09;2.00;99.90
51793;DHT22;37850;53.178;6.376;2023-02-15T08:21:37;2.00;99.90
51793;DHT22;37850;53.178;6.376;2023-02-15T08:24:05;2.50;99.90
51793;DHT22;37850;53.178;6.376;2023-02-15T08:26:32;2.10;99.90
51793;DHT22;37850;53.178;6.376;2023-02-15T08:28:59;2.20;99.90
51793;DHT22;37850;53.178;6.376;2023-02-15T08:31:25;2.30;99.90
51793;DHT22;37850;53.178;6.376;2023-02-15T08:33:52;2.70;99.90
51793;DHT22;37850;53.178;6.376;2023-02-15T08:36:20;2.40;99.90
51793;DHT22;37850;53.178;6.376;2023-02-15T08:38:46;2.50;99.90
51793;DHT22;37850;53.178;6.376;2023-02-15T08:41:18;2.50;99.90
51793;DHT22;37850;53.178;6.376;2023-02-15T08:43:46;2.60;99.90
51793;DHT22;37850;53.178;6.376;2023-02-15T08:46:14;2.60;99.90
51793;DHT22;37850;53.178;6.376;2023-02-15T08:48:41;2.70;99.90
51793;DHT22;37850;53.178;6.376;2023-02-15T08:53:43;2.80;99.90
51793;DHT22;37850;53.178;6.376;2023-02-15T08:56:09;2.90;99.90
51793;DHT22;37850;53.178;6.376;2023-02-15T08:58:36;2.90;99.90
51793;DHT22;37850;53.178;6.376;2023-02-15T09:01:14;2.90;99.90
51793;DHT22;37850;53.178;6.376;2023-02-15T09:03:44;3.10;99.90
51793;DHT22;37850;53.178;6.376;2023-02-15T09:06:10;3.10;99.90
51793;DHT22;37850;53.178;6.376;2023-02-15T09:08:36;3.20;99.90
51793;DHT22;37850;53.178;6.376;2023-02-15T09:13:37;3.80;99.90
51793;DHT22;37850;53.178;6.376;2023-02-15T09:16:06;3.30;99.90
51793;DHT22;37850;53.178;6.376;2023-02-15T09:18:36;3.30;99.90
51793;DHT22;37850;53.178;6.376;2023-02-15T09:21:06;3.30;99.90
51793;DHT22;37850;53.178;6.376;2023-02-15T09:23:33;3.40;99.90
51793;DHT22;37850;53.178;6.376;2023-02-15T09:26:02;3.50;99.90
51793;DHT22;37850;53.178;6.376;2023-02-15T09:28:28;3.50;99.90
51793;DHT22;37850;53.178;6.376;2023-02-15T09:30:55;3.60;99.90
51793;DHT22;37850;53.178;6.376;2023-02-15T09:33:21;3.60;99.90
51793;DHT22;37850;53.178;6.376;2023-02-15T09:35:47;3.70;99.90
51793;DHT22;37850;53.178;6.376;2023-02-15T09:38:13;3.70;99.90
51793;DHT22;37850;53.178;6.376;2023-02-15T09:40:53;3.90;99.90
51793;DHT22;37850;53.178;6.376;2023-02-15T09:44:04;4.50;99.90
51793;DHT22;37850;53.178;6.376;2023-02-15T09:46:38;3.90;99.90
51793;DHT22;37850;53.178;6.376;2023-02-15T09:55:16;4.20;99.90
51793;DHT22;37850;53.178;6.376;2023-02-15T10:06:36;4.50;99.90
51793;DHT22;37850;53.178;6.376;2023-02-15T10:12:17;4.70;99.90
51793;DHT22;37850;53.178;6.376;2023-02-15T10:23:40;5.00;99.90
51793;DHT22;37850;53.178;6.376;2023-02-15T10:34:05;5.20;99.90
51793;DHT22;37850;53.178;6.376;2023-02-15T10:39:26;5.50;99.90
51793;DHT22;37850;53.178;6.376;2023-02-15T10:50:47;5.70;99.90
51793;DHT22;37850;53.178;6.376;2023-02-15T10:53:43;5.80;99.90
51793;DHT22;37850;53.178;6.376;2023-02-15T11:07:48;6.20;99.90
51793;DHT22;37850;53.178;6.376;2023-02-15T11:12:45;6.30;99.90
51793;DHT22;37850;53.178;6.376;2023-02-15T11:18:28;6.00;99.90
51793;DHT22;37850;53.178;6.376;2023-02-15T11:21:02;6.50;99.90
51793;DHT22;37850;53.178;6.376;2023-02-15T11:23:30;6.60;99.90
51793;DHT22;37850;53.178;6.376;2023-02-15T11:26:03;6.70;99.90
51793;DHT22;37850;53.178;6.376;2023-02-15T11:29:00;6.80;99.90
51793;DHT22;37850;53.178;6.376;2023-02-15T11:31:56;6.90;99.90
51793;DHT22;37850;53.178;6.376;2023-02-15T11:37:00;7.10;99.90
51793;DHT22;37850;53.178;6.376;2023-02-15T11:39:28;7.10;99.90
51793;DHT22;37850;53.178;6.376;2023-02-15T11:42:00;7.20;99.90
51793;DHT22;37850;53.178;6.376;2023-02-15T11:44:43;7.30;99.90
51793;DHT22;37850;53.178;6.376;2023-02-15T11:47:12;7.40;99.90
51793;DHT22;37850;53.178;6.376;2023-02-15T11:49:39;7.50;99.90
51793;DHT22;37850;53.178;6.376;2023-02-15T11:52:07;7.50;99.90
51793;DHT22;37850;53.178;6.376;2023-02-15T11:54:36;7.70;99.90
51793;DHT22;37850;53.178;6.376;2023-02-15T11:57:33;7.70;99.90
51793;DHT22;37850;53.178;6.376;2023-02-15T12:00:27;7.70;99.90
51793;DHT22;37850;53.178;6.376;2023-02-15T12:02:57;7.90;99.90
51793;DHT22;37850;53.178;6.376;2023-02-15T12:05:24;8.00;99.90
51793;DHT22;37850;53.178;6.376;2023-02-15T12:08:15;8.10;99.90
51793;DHT22;37850;53.178;6.376;2023-02-15T12:11:09;8.10;99.90
51793;DHT22;37850;53.178;6.376;2023-02-15T12:14:14;8.20;99.90
51793;DHT22;37850;53.178;6.376;2023-02-15T12:16:51;8.30;99.90
51793;DHT22;37850;53.178;6.376;2023-02-15T12:19:29;8.40;99.90
51793;DHT22;37850;53.178;6.376;2023-02-15T12:21:56;8.70;99.90
51793;DHT22;37850;53.178;6.376;2023-02-15T12:24:54;8.60;99.90
51793;DHT22;37850;53.178;6.376;2023-02-15T12:27:26;8.60;99.90
51793;DHT22;37850;53.178;6.376;2023-02-15T12:32:36;8.80;99.90
51793;DHT22;37850;53.178;6.376;2023-02-15T12:35:14;8.80;99.90
51793;DHT22;37850;53.178;6.376;2023-02-15T12:37:54;8.80;99.90
51793;DHT22;37850;53.178;6.376;2023-02-15T12:40:24;8.90;99.90
51793;DHT22;37850;53.178;6.376;2023-02-15T12:42:51;9.00;99.90
51793;DHT22;37850;53.178;6.376;2023-02-15T12:50:38;9.30;99.90
51793;DHT22;37850;53.178;6.376;2023-02-15T12:53:17;9.30;99.90
51793;DHT22;37850;53.178;6.376;2023-02-15T12:55:56;9.30;99.90
51793;DHT22;37850;53.178;6.376;2023-02-15T12:58:24;9.40;99.90
51793;DHT22;37850;53.178;6.376;2023-02-15T13:03:29;9.50;99.90
51793;DHT22;37850;53.178;6.376;2023-02-15T13:05:56;9.50;99.90
51793;DHT22;37850;53.178;6.376;2023-02-15T13:08:34;9.50;99.90
51793;DHT22;37850;53.178;6.376;2023-02-15T13:11:08;9.50;99.90
51793;DHT22;37850;53.178;6.376;2023-02-15T13:14:01;9.60;99.90
51793;DHT22;37850;53.178;6.376;2023-02-15T13:16:34;9.60;99.90
51793;DHT22;37850;53.178;6.376;2023-02-15T13:19:15;9.50;99.90
51793;DHT22;37850;53.178;6.376;2023-02-15T13:21:44;9.60;99.90
51793;DHT22;37850;53.178;6.376;2023-02-15T13:24:26;9.60;99.90
51793;DHT22;37850;53.178;6.376;2023-02-15T13:26:55;9.60;99.90
51793;DHT22;37850;53.178;6.376;2023-02-15T13:31:49;9.90;99.90
51793;DHT22;37850;53.178;6.376;2023-02-15T13:34:20;9.70;99.90
51793;DHT22;37850;53.178;6.376;2023-02-15T13:36:51;9.80;99.90
51793;DHT22;37850;53.178;6.376;2023-02-15T13:39:38;9.70;99.90
51793;DHT22;37850;53.178;6.376;2023-02-15T13:42:30;9.70;99.90
51793;DHT22;37850;53.178;6.376;2023-02-15T13:45:29;9.70;99.90
51793;DHT22;37850;53.178;6.376;2023-02-15T13:48:25;9.80;99.90
51793;DHT22;37850;53.178;6.376;2023-02-15T13:51:12;9.70;99.90
51793;DHT22;37850;53.178;6.376;2023-02-15T14:10:47;9.70;99.90
51793;DHT22;37850;53.178;6.376;2023-02-15T14:16:23;9.70;99.90
51793;DHT22;37850;53.178;6.376;2023-02-15T14:21:52;9.80;99.90
51793;DHT22;37850;53.178;6.376;2023-02-15T14:30:37;9.80;99.90
51793;DHT22;37850;53.178;6.376;2023-02-15T14:35:54;9.80;99.90
51793;DHT22;37850;53.178;6.376;2023-02-15T14:41:04;9.80;99.90
51793;DHT22;37850;53.178;6.376;2023-02-15T14:46:29;9.80;99.90
51793;DHT22;37850;53.178;6.376;2023-02-15T14:49:17;9.80;99.90
51793;DHT22;37850;53.178;6.376;2023-02-15T15:07:59;9.70;99.90
51793;DHT22;37850;53.178;6.376;2023-02-15T15:10:42;9.70;99.90
51793;DHT22;37850;53.178;6.376;2023-02-15T15:16:23;9.70;99.90
51793;DHT22;37850;53.178;6.376;2023-02-15T15:21:10;9.60;99.90
51793;DHT22;37850;53.178;6.376;2023-02-15T15:23:43;9.60;99.90
51793;DHT22;37850;53.178;6.376;2023-02-15T15:26:30;9.60;99.90
51793;DHT22;37850;53.178;6.376;2023-02-15T15:29:00;9.60;99.90
51793;DHT22;37850;53.178;6.376;2023-02-15T15:31:37;9.60;99.90
51793;DHT22;37850;53.178;6.376;2023-02-15T15:39:44;9.50;99.90
51793;DHT22;37850;53.178;6.376;2023-02-15T15:50:45;9.40;99.90
51793;DHT22;37850;53.178;6.376;2023-02-15T15:53:21;9.40;99.90
51793;DHT22;37850;53.178;6.376;2023-02-15T15:55:49;9.40;99.90
51793;DHT22;37850;53.178;6.376;2023-02-15T15:58:18;9.30;99.90
51793;DHT22;37850;53.178;6.376;2023-02-15T16:00:48;9.30;99.90
51793;DHT22;37850;53.178;6.376;2023-02-15T16:03:21;9.30;99.90
51793;DHT22;37850;53.178;6.376;2023-02-15T16:05:47;9.30;99.90
51793;DHT22;37850;53.178;6.376;2023-02-15T16:10:51;9.20;99.90
51793;DHT22;37850;53.178;6.376;2023-02-15T16:13:17;9.10;99.90
51793;DHT22;37850;53.178;6.376;2023-02-15T16:15:48;9.10;99.90
51793;DHT22;37850;53.178;6.376;2023-02-15T16:18:16;9.10;99.90
51793;DHT22;37850;53.178;6.376;2023-02-15T16:21:13;9.10;99.90
51793;DHT22;37850;53.178;6.376;2023-02-15T16:23:50;9.00;99.90
51793;DHT22;37850;53.178;6.376;2023-02-15T16:26:52;9.00;99.90
51793;DHT22;37850;53.178;6.376;2023-02-15T16:29:29;8.90;99.90
51793;DHT22;37850;53.178;6.376;2023-02-15T16:32:06;8.90;99.90
51793;DHT22;37850;53.178;6.376;2023-02-15T16:34:32;8.90;99.90
51793;DHT22;37850;53.178;6.376;2023-02-15T16:37:19;8.80;99.90
51793;DHT22;37850;53.178;6.376;2023-02-15T16:39:47;8.80;99.90
51793;DHT22;37850;53.178;6.376;2023-02-15T16:42:16;8.80;99.90
51793;DHT22;37850;53.178;6.376;2023-02-15T16:44:45;8.90;99.90
51793;DHT22;37850;53.178;6.376;2023-02-15T16:47:21;8.70;99.90
51793;DHT22;37850;53.178;6.376;2023-02-15T16:49:50;8.70;99.90
51793;DHT22;37850;53.178;6.376;2023-02-15T16:52:23;8.60;99.90
51793;DHT22;37850;53.178;6.376;2023-02-15T16:55:04;8.60;99.90
51793;DHT22;37850;53.178;6.376;2023-02-15T16:57:34;8.60;99.90
51793;DHT22;37850;53.178;6.376;2023-02-15T17:00:17;8.60;99.90
51793;DHT22;37850;53.178;6.376;2023-02-15T17:03:00;8.50;99.90
51793;DHT22;37850;53.178;6.376;2023-02-15T17:05:40;8.50;99.90
51793;DHT22;37850;53.178;6.376;2023-02-15T17:08:17;8.40;99.90
51793;DHT22;37850;53.178;6.376;2023-02-15T17:13:36;8.30;99.90
51793;DHT22;37850;53.178;6.376;2023-02-15T17:18:54;7.90;99.90
51793;DHT22;37850;53.178;6.376;2023-02-15T17:21:35;8.30;99.90
51793;DHT22;37850;53.178;6.376;2023-02-15T17:24:03;8.20;99.90
51793;DHT22;37850;53.178;6.376;2023-02-15T17:26:33;8.20;99.90
51793;DHT22;37850;53.178;6.376;2023-02-15T17:29:09;8.10;99.90
51793;DHT22;37850;53.178;6.376;2023-02-15T17:31:37;8.10;99.90
51793;DHT22;37850;53.178;6.376;2023-02-15T17:34:03;8.10;99.90
51793;DHT22;37850;53.178;6.376;2023-02-15T17:36:30;8.10;99.90
51793;DHT22;37850;53.178;6.376;2023-02-15T17:43:48;8.00;99.90
51793;DHT22;37850;53.178;6.376;2023-02-15T17:46:14;8.00;99.90
51793;DHT22;37850;53.178;6.376;2023-02-15T17:48:46;7.60;99.90
51793;DHT22;37850;53.178;6.376;2023-02-15T17:51:13;7.90;99.90
51793;DHT22;37850;53.178;6.376;2023-02-15T17:53:41;7.90;99.90
51793;DHT22;37850;53.178;6.376;2023-02-15T17:56:27;7.80;99.90
51793;DHT22;37850;53.178;6.376;2023-02-15T17:58:53;7.80;99.90
51793;DHT22;37850;53.178;6.376;2023-02-15T18:01:19;7.80;99.90
51793;DHT22;37850;53.178;6.376;2023-02-15T18:04:07;7.70;99.90
51793;DHT22;37850;53.178;6.376;2023-02-15T18:06:52;7.70;99.90
51793;DHT22;37850;53.178;6.376;2023-02-15T18:09:37;7.70;99.90
51793;DHT22;37850;53.178;6.376;2023-02-15T18:12:24;7.60;99.90
51793;DHT22;37850;53.178;6.376;2023-02-15T18:14:51;7.60;99.90
51793;DHT22;37850;53.178;6.376;2023-02-15T18:17:34;7.50;99.90
51793;DHT22;37850;53.178;6.376;2023-02-15T18:20:02;7.50;99.90
51793;DHT22;37850;53.178;6.376;2023-02-15T18:22:31;7.50;99.90
51793;DHT22;37850;53.178;6.376;2023-02-15T18:24:57;7.50;99.90
51793;DHT22;37850;53.178;6.376;2023-02-15T18:27:23;7.50;99.90
51793;DHT22;37850;53.178;6.376;2023-02-15T18:29:49;7.40;99.90
51793;DHT22;37850;53.178;6.376;2023-02-15T18:32:30;7.40;99.90
51793;DHT22;37850;53.178;6.376;2023-02-15T18:34:57;7.40;99.90
51793;DHT22;37850;53.178;6.376;2023-02-15T18:37:25;7.40;99.90
51793;DHT22;37850;53.178;6.376;2023-02-15T18:39:52;7.40;99.90
51793;DHT22;37850;53.178;6.376;2023-02-15T18:42:33;7.40;99.90
51793;DHT22;37850;53.178;6.376;2023-02-15T18:47:40;7.30;99.90
51793;DHT22;37850;53.178;6.376;2023-02-15T18:50:06;7.30;99.90
51793;DHT22;37850;53.178;6.376;2023-02-15T18:52:35;7.30;99.90
51793;DHT22;37850;53.178;6.376;2023-02-15T18:55:25;7.30;99.90
51793;DHT22;37850;53.178;6.376;2023-02-15T18:57:51;7.30;99.90
51793;DHT22;37850;53.178;6.376;2023-02-15T19:00:20;7.70;99.90
51793;DHT22;37850;53.178;6.376;2023-02-15T19:02:47;7.20;99.90
51793;DHT22;37850;53.178;6.376;2023-02-15T19:05:13;7.20;99.90
51793;DHT22;37850;53.178;6.376;2023-02-15T19:07:40;7.20;99.90
51793;DHT22;37850;53.178;6.376;2023-02-15T19:10:20;7.10;99.90
51793;DHT22;37850;53.178;6.376;2023-02-15T19:12:47;7.10;99.90
51793;DHT22;37850;53.178;6.376;2023-02-15T19:15:18;7.10;99.90
51793;DHT22;37850;53.178;6.376;2023-02-15T19:17:44;7.10;99.90
51793;DHT22;37850;53.178;6.376;2023-02-15T19:20:19;7.00;99.90
51793;DHT22;37850;53.178;6.376;2023-02-15T19:22:50;7.00;99.90
51793;DHT22;37850;53.178;6.376;2023-02-15T19:25:20;7.00;99.90
51793;DHT22;37850;53.178;6.376;2023-02-15T19:27:46;6.90;99.90
51793;DHT22;37850;53.178;6.376;2023-02-15T19:30:23;6.90;99.90
51793;DHT22;37850;53.178;6.376;2023-02-15T19:32:52;6.90;99.90
51793;DHT22;37850;53.178;6.376;2023-02-15T19:35:20;6.90;99.90
51793;DHT22;37850;53.178;6.376;2023-02-15T19:37:55;6.90;99.90
51793;DHT22;37850;53.178;6.376;2023-02-15T19:40:27;6.90;99.90